createdAt,value
2018-08-08T00:02:05.127Z,7.40
2018-08-08T00:04:33.166Z,4.63
2018-08-08T00:07:01.240Z,4.83
2018-08-08T00:09:29.312Z,4.70
2018-08-08T00:11:57.395Z,4.63
2018-08-08T00:14:25.459Z,4.47
2018-08-08T00:16:53.515Z,4.60
2018-08-08T00:19:21.590Z,5.67
2018-08-08T00:21:49.660Z,4.40
2018-08-08T00:24:17.792Z,4.60
2018-08-08T00:26:45.852Z,5.23
2018-08-08T00:29:13.912Z,7.60
2018-08-08T00:31:41.971Z,4.47
2018-08-08T00:34:10.012Z,4.33
2018-08-08T00:36:38.106Z,10.93
2018-08-08T00:39:07.262Z,5.23
2018-08-08T00:41:35.326Z,5.10
2018-08-08T00:44:03.405Z,4.97
2018-08-08T00:46:31.493Z,5.07
2018-08-08T00:48:59.571Z,5.07
2018-08-08T00:51:27.631Z,5.27
2018-08-08T00:53:55.692Z,5.90
2018-08-08T00:56:23.784Z,5.20
2018-08-08T00:58:51.826Z,5.00
2018-08-08T01:01:19.919Z,4.80
2018-08-08T01:03:47.997Z,5.73
2018-08-08T01:06:16.064Z,5.40
2018-08-08T01:08:44.160Z,5.40
2018-08-08T01:11:12.186Z,6.10
2018-08-08T01:13:43.234Z,5.10
2018-08-08T01:16:11.277Z,6.10
2018-08-08T01:18:39.326Z,5.80
2018-08-08T01:21:07.782Z,6.00
2018-08-08T01:23:35.839Z,6.33
2018-08-08T01:26:03.923Z,6.60
2018-08-08T01:28:32.071Z,5.87
2018-08-08T01:31:00.141Z,5.87
2018-08-08T01:33:28.190Z,5.47
2018-08-08T01:35:56.251Z,5.47
2018-08-08T01:38:24.419Z,5.30
2018-08-08T01:40:52.485Z,5.80
2018-08-08T01:43:20.551Z,5.70
2018-08-08T01:45:48.730Z,5.33
2018-08-08T01:48:16.685Z,5.50
2018-08-08T01:50:44.767Z,5.27
2018-08-08T01:53:12.826Z,5.77
2018-08-08T01:55:40.922Z,6.10
2018-08-08T01:58:08.971Z,6.70
2018-08-08T02:00:37.107Z,5.63
2018-08-08T02:03:05.202Z,5.90
2018-08-08T02:05:33.281Z,6.63
2018-08-08T02:08:01.407Z,5.80
2018-08-08T02:10:29.526Z,6.13
2018-08-08T02:12:57.628Z,5.37
2018-08-08T02:15:25.674Z,6.20
2018-08-08T02:17:53.753Z,5.57
2018-08-08T02:20:21.815Z,5.70
2018-08-08T02:22:49.879Z,5.20
2018-08-08T02:25:18.380Z,5.70
2018-08-08T02:27:46.511Z,6.57
2018-08-08T02:30:19.607Z,6.13
2018-08-08T02:32:48.532Z,6.40
2018-08-08T02:35:16.695Z,5.67
2018-08-08T02:37:44.943Z,6.40
2018-08-08T02:40:13.128Z,6.27
2018-08-08T02:42:41.491Z,6.03
2018-08-08T02:45:13.792Z,5.47
2018-08-08T02:47:41.857Z,5.77
2018-08-08T02:50:11.824Z,5.97
2018-08-08T02:52:40.044Z,5.90
2018-08-08T02:55:09.460Z,5.67
2018-08-08T02:57:37.618Z,5.30
2018-08-08T03:00:06.559Z,5.60
2018-08-08T03:02:34.617Z,5.70
2018-08-08T03:05:02.663Z,6.03
2018-08-08T03:07:30.757Z,6.30
2018-08-08T03:09:58.808Z,7.00
2018-08-08T03:12:27.239Z,5.77
2018-08-08T03:14:55.436Z,6.20
2018-08-08T03:17:23.532Z,6.13
2018-08-08T03:19:51.589Z,5.90
2018-08-08T03:22:19.648Z,7.17
2018-08-08T03:24:47.692Z,8.40
2018-08-08T03:27:15.746Z,6.03
2018-08-08T03:29:43.798Z,6.70
2018-08-08T03:32:11.895Z,8.13
2018-08-08T03:34:39.962Z,7.50
2018-08-08T03:37:08.056Z,10.13
2018-08-08T03:39:36.382Z,9.50
2018-08-08T03:42:04.458Z,8.83
2018-08-08T03:44:32.492Z,9.00
2018-08-08T03:47:00.556Z,8.60
2018-08-08T03:49:28.603Z,10.87
2018-08-08T03:51:56.795Z,9.40
2018-08-08T03:54:24.840Z,9.67
2018-08-08T03:56:52.976Z,9.63
2018-08-08T03:59:21.029Z,9.70
2018-08-08T04:01:49.152Z,12.60
2018-08-08T04:04:17.250Z,10.50
2018-08-08T04:06:45.344Z,10.37
2018-08-08T04:09:13.437Z,9.83
2018-08-08T04:11:41.523Z,11.37
2018-08-08T04:14:09.571Z,13.73
2018-08-08T04:16:37.826Z,11.60
2018-08-08T04:19:05.983Z,11.30
2018-08-08T04:21:34.354Z,11.37
2018-08-08T04:24:02.510Z,12.87
2018-08-08T04:26:30.639Z,14.73
2018-08-08T04:28:58.813Z,15.23
2018-08-08T04:31:26.887Z,16.23
2018-08-08T04:33:55.162Z,17.13
2018-08-08T04:36:23.299Z,15.00
2018-08-08T04:38:51.335Z,15.33
2018-08-08T04:41:19.388Z,15.97
2018-08-08T04:43:47.500Z,12.93
2018-08-08T04:46:15.599Z,19.43
2018-08-08T04:48:43.667Z,11.70
2018-08-08T04:51:11.731Z,9.30
2018-08-08T04:53:39.843Z,10.90
2018-08-08T04:56:07.978Z,9.13
2018-08-08T04:58:36.661Z,10.63
2018-08-08T05:01:05.316Z,8.80
2018-08-08T05:03:33.391Z,12.47
2018-08-08T05:06:01.645Z,10.60
2018-08-08T05:08:29.706Z,11.83
2018-08-08T05:10:57.772Z,11.70
2018-08-08T05:13:25.815Z,10.23
2018-08-08T05:15:53.910Z,9.77
2018-08-08T05:18:22.003Z,9.60
2018-08-08T05:20:50.076Z,8.90
2018-08-08T05:23:18.136Z,11.97
2018-08-08T05:25:46.309Z,10.10
2018-08-08T05:28:14.378Z,10.70
2018-08-08T05:30:42.478Z,7.90
2018-08-08T05:33:10.616Z,8.70
2018-08-08T05:35:38.661Z,8.10
2018-08-08T05:38:06.768Z,7.53
2018-08-08T05:40:34.912Z,7.20
2018-08-08T05:43:03.195Z,9.20
2018-08-08T05:45:31.243Z,8.40
2018-08-08T05:47:59.382Z,7.20
2018-08-08T05:50:27.519Z,10.20
2018-08-08T05:52:55.591Z,8.90
2018-08-08T05:55:23.662Z,10.37
2018-08-08T05:57:51.726Z,8.70
2018-08-08T06:00:22.948Z,9.10
2018-08-08T06:02:51.163Z,8.97
2018-08-08T06:05:19.214Z,8.83
2018-08-08T06:07:47.314Z,8.57
2018-08-08T06:10:15.395Z,8.50
2018-08-08T06:12:43.675Z,6.50
2018-08-08T06:23:59.675Z,6.93
2018-08-08T06:26:27.951Z,8.03
2018-08-08T06:28:56.258Z,5.93
2018-08-08T06:31:24.504Z,6.93
2018-08-08T06:33:52.875Z,6.10
2018-08-08T06:36:21.089Z,10.90
2018-08-08T06:38:49.356Z,5.80
2018-08-08T06:41:17.618Z,6.40
2018-08-08T06:43:45.930Z,6.47
2018-08-08T06:46:14.197Z,5.00
2018-08-08T06:48:42.498Z,4.90
2018-08-08T06:51:10.765Z,6.93
2018-08-08T06:53:39.035Z,10.07
2018-08-08T06:56:07.277Z,6.43
2018-08-08T06:58:35.613Z,6.03
2018-08-08T07:01:03.864Z,4.97
2018-08-08T07:03:32.188Z,5.50
2018-08-08T07:06:00.737Z,7.30
2018-08-08T07:08:28.996Z,4.33
2018-08-08T07:10:57.325Z,5.00
2018-08-08T07:13:25.683Z,7.87
2018-08-08T07:15:53.941Z,8.10
2018-08-08T07:18:22.329Z,7.13
2018-08-08T07:20:50.605Z,4.50
2018-08-08T07:23:18.910Z,7.20
2018-08-08T07:25:47.185Z,5.20
2018-08-08T07:28:15.498Z,4.67
2018-08-08T07:30:43.751Z,6.03
2018-08-08T07:33:12.037Z,5.07
2018-08-08T07:35:40.336Z,6.17
2018-08-08T07:38:09.365Z,5.13
2018-08-08T07:40:37.666Z,4.73
2018-08-08T07:43:06.199Z,9.60
2018-08-08T07:45:34.490Z,2.93
2018-08-08T07:48:02.818Z,5.83
2018-08-08T07:50:31.121Z,7.97
2018-08-08T07:52:59.375Z,3.63
2018-08-08T07:55:27.720Z,3.77
2018-08-08T07:57:56.290Z,11.23
2018-08-08T08:00:28.093Z,6.07
2018-08-08T08:02:57.150Z,5.23
2018-08-08T08:05:25.494Z,3.37
2018-08-08T08:07:54.705Z,5.43
2018-08-08T08:10:23.003Z,4.80
2018-08-08T08:12:51.471Z,4.10
2018-08-08T08:15:19.695Z,3.57
2018-08-08T08:17:48.014Z,3.97
2018-08-08T08:20:17.638Z,3.90
2018-08-08T08:22:46.778Z,3.80
2018-08-08T08:25:15.283Z,2.47
2018-08-08T08:27:44.414Z,6.23
2018-08-08T08:30:16.013Z,2.73
2018-08-08T08:32:44.718Z,3.80
2018-08-08T08:35:14.749Z,4.57
2018-08-08T08:37:43.131Z,4.23
2018-08-08T08:40:12.138Z,5.30
2018-08-08T08:42:41.094Z,3.53
2018-08-08T08:45:09.420Z,3.33
2018-08-08T08:47:37.718Z,5.13
2018-08-08T08:50:06.407Z,3.00
2018-08-08T08:52:35.588Z,3.70
2018-08-08T08:55:04.115Z,3.97
2018-08-08T08:57:39.597Z,5.17
2018-08-08T09:00:09.963Z,6.00
2018-08-08T09:02:38.250Z,4.23
2018-08-08T09:05:07.094Z,4.07
2018-08-08T09:07:35.774Z,3.13
2018-08-08T09:10:05.009Z,4.03
2018-08-08T09:12:33.229Z,3.53
2018-08-08T09:15:01.596Z,4.80
2018-08-08T09:17:29.778Z,3.23
2018-08-08T09:19:58.050Z,3.07
2018-08-08T09:22:26.356Z,4.33
2018-08-08T09:24:54.584Z,6.03
2018-08-08T09:27:22.873Z,4.53
2018-08-08T09:29:56.358Z,3.70
2018-08-08T09:32:24.629Z,2.70
2018-08-08T09:34:52.934Z,2.80
2018-08-08T09:37:21.209Z,4.50
2018-08-08T09:39:49.548Z,2.60
2018-08-08T09:42:17.813Z,3.90
2018-08-08T09:44:46.118Z,5.17
2018-08-08T09:47:14.388Z,3.87
2018-08-08T09:49:49.138Z,2.90
2018-08-08T09:55:34.192Z,3.90
2018-08-08T09:58:02.393Z,4.50
2018-08-08T10:00:46.910Z,3.53
2018-08-08T10:03:20.407Z,3.57
2018-08-08T10:05:49.046Z,3.90
2018-08-08T10:08:17.329Z,2.97
2018-08-08T10:10:55.149Z,5.80
2018-08-08T10:13:27.871Z,4.00
2018-08-08T10:16:04.395Z,5.33
2018-08-08T10:18:32.653Z,3.90
2018-08-08T10:21:00.887Z,5.40
2018-08-08T10:23:31.657Z,2.73
2018-08-08T10:28:52.914Z,5.03
2018-08-08T10:31:27.855Z,3.87
2018-08-08T10:36:56.760Z,4.27
2018-08-08T10:40:04.730Z,5.23
2018-08-08T10:42:49.460Z,3.57
2018-08-08T10:45:18.673Z,3.00
2018-08-08T10:47:47.004Z,2.87
2018-08-08T10:54:32.409Z,2.93
2018-08-08T10:57:00.626Z,4.10
2018-08-08T10:59:28.901Z,3.67
2018-08-08T11:01:59.929Z,3.93
2018-08-08T11:04:28.483Z,3.80
2018-08-08T11:06:56.539Z,4.00
2018-08-08T11:09:24.611Z,4.00
2018-08-08T11:11:52.749Z,4.33
2018-08-08T11:14:44.066Z,1.90
2018-08-08T11:17:12.223Z,2.80
2018-08-08T11:19:41.593Z,5.83
2018-08-08T11:22:15.668Z,3.47
2018-08-08T11:24:47.003Z,6.80
2018-08-08T11:29:55.248Z,4.60
2018-08-08T11:32:33.400Z,5.20
2018-08-08T11:35:01.588Z,3.43
2018-08-08T11:37:31.551Z,3.53
2018-08-08T11:39:59.736Z,7.20
2018-08-08T11:42:27.943Z,4.37
2018-08-08T11:44:56.077Z,6.20
2018-08-08T11:47:24.127Z,3.90
2018-08-08T11:49:52.184Z,5.37
2018-08-08T11:52:49.510Z,4.83
2018-08-08T11:55:17.603Z,4.60
2018-08-08T11:57:46.122Z,3.33
2018-08-08T12:00:14.175Z,4.93
2018-08-08T12:02:42.231Z,3.43
2018-08-08T12:05:10.528Z,4.47
2018-08-08T12:07:38.588Z,5.93
2018-08-08T12:10:07.724Z,5.83
2018-08-08T12:12:43.688Z,5.03
2018-08-08T12:15:11.927Z,5.30
2018-08-08T12:17:39.998Z,7.77
2018-08-08T12:20:08.081Z,8.83
2018-08-08T12:22:36.151Z,4.37
2018-08-08T12:25:04.554Z,4.93
2018-08-08T12:27:32.612Z,6.03
2018-08-08T12:30:00.659Z,3.70
2018-08-08T12:32:28.747Z,5.27
2018-08-08T12:34:56.807Z,5.03
2018-08-08T12:37:24.855Z,4.90
2018-08-08T12:39:52.921Z,4.47
2018-08-08T12:42:20.976Z,5.83
2018-08-08T12:44:49.025Z,5.10
2018-08-08T12:47:17.079Z,4.30
2018-08-08T12:49:45.143Z,3.63
2018-08-08T12:52:13.239Z,5.50
2018-08-08T12:54:41.286Z,8.80
2018-08-08T12:57:09.341Z,5.63
2018-08-08T12:59:37.392Z,5.23
2018-08-08T13:02:05.476Z,4.43
2018-08-08T13:04:33.496Z,5.20
2018-08-08T13:07:01.539Z,6.13
2018-08-08T13:09:29.604Z,7.07
2018-08-08T13:11:57.678Z,7.60
2018-08-08T13:14:25.749Z,5.83
2018-08-08T13:16:53.835Z,7.00
2018-08-08T13:19:21.919Z,8.97
2018-08-08T13:21:50.201Z,8.97
2018-08-08T13:24:18.487Z,5.70
2018-08-08T13:29:30.750Z,6.00
2018-08-08T13:32:00.238Z,3.40
2018-08-08T13:53:11.528Z,5.10
2018-08-08T13:55:39.627Z,6.73
2018-08-08T13:58:07.716Z,4.30
2018-08-08T14:00:35.811Z,6.43
2018-08-08T14:03:03.949Z,4.20
2018-08-08T14:05:32.026Z,5.70
2018-08-08T14:08:00.079Z,3.70
2018-08-08T14:10:28.459Z,4.33
2018-08-08T14:12:56.587Z,5.57
2018-08-08T14:15:24.687Z,7.43
2018-08-08T14:17:52.889Z,6.83
2018-08-08T14:20:22.378Z,9.57
2018-08-08T14:22:50.709Z,4.10
2018-08-08T14:25:35.959Z,4.77
2018-08-08T14:28:04.131Z,5.03
2018-08-08T14:30:39.240Z,4.13
2018-08-08T14:33:08.325Z,5.20
2018-08-08T14:35:36.524Z,5.60
2018-08-08T14:38:04.714Z,6.20
2018-08-08T14:40:33.923Z,4.50
2018-08-08T14:43:04.029Z,5.43
2018-08-08T14:45:32.866Z,4.63
2018-08-08T14:48:09.305Z,4.50
2018-08-08T14:50:37.500Z,5.40
2018-08-08T14:53:05.677Z,4.57
2018-08-08T14:55:36.914Z,4.40
2018-08-08T15:00:53.653Z,4.13
2018-08-08T15:03:23.756Z,4.00
2018-08-08T15:05:55.463Z,5.13
2018-08-08T15:08:29.335Z,5.00
2018-08-08T16:07:28.004Z,4.90
2018-08-08T16:10:02.850Z,7.17
2018-08-08T16:12:31.214Z,4.90
2018-08-08T16:17:51.805Z,4.07
2018-08-08T16:20:30.607Z,4.23
2018-08-08T16:22:58.772Z,4.00
2018-08-08T16:25:29.094Z,6.50
2018-08-08T16:27:57.255Z,5.30
2018-08-08T16:30:25.420Z,5.20
2018-08-08T16:32:53.706Z,4.70
2018-08-08T16:35:21.950Z,4.37
2018-08-08T16:37:50.136Z,4.83
2018-08-08T16:40:18.337Z,5.80
2018-08-08T16:42:46.538Z,6.57
2018-08-08T16:45:14.720Z,5.10
2018-08-08T16:47:42.921Z,5.00
2018-08-08T16:50:12.096Z,4.13
2018-08-08T16:52:40.360Z,4.13
2018-08-08T16:55:09.810Z,4.87
2018-08-08T16:57:38.041Z,3.83
2018-08-08T17:00:08.480Z,3.90
2018-08-08T17:02:36.663Z,4.53
2018-08-08T17:05:05.428Z,4.60
2018-08-08T17:07:33.603Z,4.47
2018-08-08T17:10:01.751Z,4.70
2018-08-08T17:12:29.855Z,7.80
2018-08-08T17:14:57.898Z,8.60
2018-08-08T17:17:25.985Z,4.00
2018-08-08T17:19:54.050Z,5.50
2018-08-08T17:22:22.147Z,4.57
2018-08-08T17:24:50.331Z,5.03
2018-08-08T17:27:18.512Z,4.73
2018-08-08T17:29:46.630Z,15.03
2018-08-08T17:32:14.739Z,7.20
2018-08-08T17:34:42.900Z,20.90
2018-08-08T17:37:11.132Z,5.17
2018-08-08T17:39:39.156Z,9.43
2018-08-08T17:42:07.244Z,5.70
2018-08-08T17:44:35.408Z,4.63
2018-08-08T17:47:03.558Z,20.70
2018-08-08T17:49:32.939Z,10.30
2018-08-08T17:52:01.126Z,6.80
2018-08-08T17:54:34.782Z,5.03
2018-08-08T17:57:02.880Z,5.03
2018-08-08T17:59:31.482Z,16.93
2018-08-08T18:01:59.588Z,22.47
2018-08-08T18:04:27.696Z,9.87
2018-08-08T18:06:55.765Z,6.77
2018-08-08T18:09:24.757Z,9.60
2018-08-08T18:11:52.818Z,5.10
2018-08-08T18:14:20.914Z,9.70
2018-08-08T18:16:51.021Z,5.07
2018-08-08T18:19:23.770Z,4.40
2018-08-08T18:21:53.995Z,5.13
2018-08-08T18:24:36.137Z,8.10
2018-08-08T18:27:06.172Z,6.40
2018-08-08T18:29:38.516Z,5.17
2018-08-08T18:32:06.643Z,5.67
2018-08-08T18:34:34.799Z,4.97
2018-08-08T18:37:02.912Z,7.37
2018-08-08T18:39:32.025Z,4.60
2018-08-08T18:42:00.158Z,7.07
2018-08-08T18:47:16.115Z,4.00
2018-08-08T18:49:45.783Z,4.87
2018-08-08T18:52:14.756Z,4.50
2018-08-08T19:18:56.728Z,4.53
2018-08-08T19:21:28.767Z,4.40
2018-08-08T19:24:01.318Z,4.10
2018-08-08T19:26:29.863Z,6.63
2018-08-08T19:28:59.297Z,4.20
2018-08-08T19:31:30.653Z,4.40
2018-08-08T19:33:59.878Z,4.07
2018-08-08T19:36:28.756Z,4.47
2018-08-08T19:38:57.582Z,5.70
2018-08-08T19:41:27.641Z,4.50
2018-08-08T19:44:01.780Z,4.50
2018-08-08T19:46:29.900Z,4.93
2018-08-08T19:48:58.035Z,5.23
2018-08-08T19:51:26.783Z,4.53
2018-08-08T19:53:56.679Z,5.47
2018-08-08T19:56:24.842Z,4.10
2018-08-08T19:58:53.231Z,4.73
2018-08-08T20:01:21.592Z,4.90
2018-08-08T20:03:51.123Z,4.03
2018-08-08T20:06:20.026Z,5.23
2018-08-08T20:08:50.125Z,4.20
2018-08-08T20:11:18.265Z,5.00
2018-08-08T20:13:46.418Z,5.93
2018-08-08T20:16:14.699Z,6.10
2018-08-08T20:18:43.071Z,4.70
2018-08-08T20:21:11.375Z,4.70
2018-08-08T20:23:39.504Z,5.30
2018-08-08T20:26:08.613Z,4.87
2018-08-08T20:28:37.361Z,5.30
2018-08-08T20:31:05.678Z,5.30
2018-08-08T20:33:33.883Z,4.67
2018-08-08T20:36:02.513Z,4.77
2018-08-08T20:38:31.501Z,6.60
2018-08-08T20:40:59.678Z,4.70
2018-08-08T20:43:27.862Z,5.00
2018-08-08T20:45:56.627Z,5.10
2018-08-08T20:48:24.707Z,5.33
2018-08-08T20:53:25.912Z,4.77
2018-08-08T20:55:54.820Z,5.53
2018-08-08T20:58:22.951Z,5.07
2018-08-08T21:00:51.120Z,5.10
2018-08-08T21:03:19.636Z,4.80
2018-08-08T21:05:47.786Z,4.77
2018-08-08T21:08:16.275Z,5.90
2018-08-08T21:10:45.547Z,5.00
2018-08-08T21:13:13.692Z,6.70
2018-08-08T21:15:41.951Z,5.97
2018-08-08T21:18:10.369Z,5.03
2018-08-08T21:20:39.716Z,5.27
2018-08-08T21:23:07.912Z,4.90
2018-08-08T21:25:37.149Z,5.63
2018-08-08T21:28:07.132Z,5.73
2018-08-08T21:30:35.325Z,5.50
2018-08-08T21:33:03.711Z,6.00
2018-08-08T21:35:33.649Z,5.40
2018-08-08T21:38:04.836Z,5.63
2018-08-08T21:40:42.288Z,5.57
2018-08-08T21:43:14.712Z,5.30
2018-08-08T21:45:42.919Z,5.63
2018-08-08T21:48:10.997Z,5.00
2018-08-08T21:50:39.111Z,5.43
2018-08-08T21:53:07.215Z,6.13
2018-08-08T21:55:46.722Z,6.07
2018-08-08T21:58:26.203Z,5.73
2018-08-08T22:01:05.713Z,6.23
2018-08-08T22:03:45.035Z,5.30
2018-08-08T22:06:24.666Z,6.20
2018-08-08T22:09:07.508Z,5.60
2018-08-08T22:11:52.453Z,5.90
2018-08-08T22:14:33.305Z,6.50
2018-08-08T22:19:20.218Z,5.50
2018-08-08T22:21:53.307Z,7.00
2018-08-08T22:24:24.740Z,7.10
2018-08-08T22:26:55.407Z,6.87
2018-08-08T22:29:23.985Z,7.83
2018-08-08T22:31:53.355Z,6.33
2018-08-08T22:34:23.487Z,5.50
2018-08-08T22:36:52.859Z,6.17
2018-08-08T22:39:21.202Z,8.30
2018-08-08T22:41:49.516Z,7.27
2018-08-08T22:44:18.881Z,6.57
2018-08-08T22:46:47.516Z,7.10
2018-08-08T22:49:15.579Z,6.30
2018-08-08T22:51:43.614Z,6.13
2018-08-08T22:54:11.683Z,6.97
2018-08-08T22:56:39.751Z,6.80
2018-08-08T22:59:07.838Z,6.93
2018-08-08T23:01:35.921Z,6.97
2018-08-08T23:04:04.000Z,7.07
2018-08-08T23:06:32.347Z,7.17
2018-08-08T23:09:00.417Z,8.20
2018-08-08T23:11:28.494Z,8.13
2018-08-08T23:13:56.564Z,6.67
2018-08-08T23:16:24.821Z,6.13
2018-08-08T23:18:53.296Z,8.77
2018-08-08T23:21:21.364Z,7.97
2018-08-08T23:23:49.477Z,6.30
2018-08-08T23:26:17.589Z,7.40
2018-08-08T23:28:45.738Z,7.27
2018-08-08T23:31:13.875Z,7.27
2018-08-08T23:33:42.009Z,7.03
2018-08-08T23:36:10.055Z,6.63
2018-08-08T23:38:38.112Z,6.90
2018-08-08T23:41:06.156Z,7.23
2018-08-08T23:43:34.283Z,7.10
2018-08-08T23:46:02.313Z,8.10
2018-08-08T23:48:30.415Z,7.27
2018-08-08T23:50:58.464Z,7.03
2018-08-08T23:53:26.543Z,8.17
2018-08-08T23:55:54.631Z,7.33
2018-08-08T23:58:22.700Z,7.97
